Hauptseite
METAR-TAF:

METAR-TAF

Flughäfen :

Flughafen Kefalonia

Kefalonia, Griechenland

Breite: 38-07N, Länge: 020-30E, Höhe: 19 m

Beobachtung

Neuester Wetterbericht von vor 2 Stunden und 22 Minuten, um 17:50 UTC
Wind 5 kt aus Nord/Nordwest
Temperatur 15°C
Luftfeuchtigkeit 88%
Luftdruck 1019 hPa
Sichtweite 10 km oder mehr
Aufgelockert bewölkt in der Höhe von 1600 ft

METAR: LGKF 071750Z 34005KT 9999 SCT016 15/13 Q1019

Zeit: 22:12 (20:12 UTC)

Prognose

Neuester Wetterbericht von vor 3 Stunden und 12 Minuten, um 17:00 UTC
Gültige Prognose vom 07 um 18 UTC bis 08 um 03 UTC
Wind 12 kt aus Nordwest
Sichtweite 10 km oder mehr
Leicht bewölkt in der Höhe von 1400 ft
Aufgelockert bewölkt in der Höhe von 1800 ft
Durchbrochene Bewölkung in der Höhe von 7000 ft

TAF: LGKF 071700Z 0718/0803 32012KT 9999 FEW014 SCT018 BKN070

Wetterbeobachtungen und Prognosen von mehr als 4000 Flughäfen (METAR und TAF Bericht).

Die verfügbaren Stationen werden durch gelbe und rote Markierungen auf der Karte dargestellt.

Führen Sie die Maus auf sie, um den Namen der Station zu sehen.

Darauf klicken, um die Beobachtung von Wetterbeobachtungen und Prognosen zu sehen.

Um die Karte zu ändern : klicken Sie auf den grünen Tasten mit einem schwarzen Kreuz Zum Vergrößern, auf den grünen Button mit einem Gedankenstrich zu verkleinern, oder auf die grünen Pfeile für benachbarte Karten.


METAR-TAF: